KATL/ATL METAR and TAF weather

Enter ICAO airport designator
Station Type Date Time Source
KATL METAR 2019/08/24 08:52 UTC NOAA

KATL 240852Z 00000KT 10SM FEW055 FEW250 24/21 A3002 RMK AO2 SLP154 T02390211 56009


Station Type Date Time Source
KATL Decoded METAR 2019/08/24 08:52 UTC NOAA

Station name not available
Aug 24, 2019 - 04:52 AM EDT / 2019.08.24 0852 UTC
Wind: Calm:0
Visibility: 10 mile(s):0
Sky conditions: mostly clear
Temperature: 75.0 F (23.9 C)
Dew Point: 70.0 F (21.1 C)
Relative Humidity: 84%
Pressure (altimeter): 30.02 in. Hg (1016 hPa)
Pressure tendency: 0.03 inches (0.9 hPa) lower than three hours ago
ob: KATL 240852Z 00000KT 10SM FEW055 FEW250 24/21 A3002 RMK AO2 SLP154 T02390211 56009
cycle: 9

Station Type Date Time Source
KATL TAF 2019/08/24 08:52 UTC NOAA

TAF
AMD KATL 240749Z 2408/2512 13003KT P6SM FEW050 SCT150 BKN250
FM241100 04003KT P6SM SCT006 SCT150
FM241500 05004KT P6SM SCT030 SCT250
FM241800 09006KT P6SM VCSH BKN040 PROB30 2418/2424 5SM TSRA BKN035CB
FM250100 08007KT P6SM VCSH FEW014 BKN025
FM250400 08009KT P6SM OVC012
FM250700 08010KT P6SM OVC007

Example: see airport list